createdAt,value
2015-11-26T00:00:31.672Z,99.9
2015-11-26T00:01:31.481Z,99.9
2015-11-26T00:02:31.588Z,99.9
2015-11-26T00:03:31.795Z,99.9
2015-11-26T00:04:31.473Z,99.9
2015-11-26T00:05:31.413Z,99.9
2015-11-26T00:06:31.337Z,99.9
2015-11-26T00:07:31.309Z,99.9
2015-11-26T00:08:31.218Z,99.9
2015-11-26T00:09:31.156Z,99.9
2015-11-26T00:10:31.096Z,99.9
2015-11-26T00:11:31.051Z,99.9
2015-11-26T00:12:31.007Z,99.9
2015-11-26T00:13:30.931Z,99.9
2015-11-26T00:14:30.888Z,99.9
2015-11-26T00:15:30.829Z,99.9
2015-11-26T00:16:30.768Z,99.9
2015-11-26T00:17:30.959Z,99.9
2015-11-26T00:18:30.648Z,99.9
2015-11-26T00:19:30.604Z,99.9
2015-11-26T00:20:30.528Z,99.9
2015-11-26T00:21:30.501Z,99.9
2015-11-26T00:22:30.457Z,99.9
2015-11-26T00:23:30.365Z,99.9
2015-11-26T00:24:30.321Z,99.9
2015-11-26T00:25:30.262Z,99.9
2015-11-26T00:26:30.203Z,99.9
2015-11-26T00:27:29.986Z,99.9
2015-11-26T00:28:30.083Z,99.9
2015-11-26T00:29:30.039Z,99.9
2015-11-26T00:30:29.978Z,99.9
2015-11-26T00:31:29.919Z,99.9
2015-11-26T00:32:29.859Z,99.9
2015-11-26T00:33:29.878Z,99.9
2015-11-26T00:34:29.989Z,99.9
2015-11-26T00:35:29.695Z,99.9
2015-11-26T00:36:29.636Z,99.9
2015-11-26T00:37:29.607Z,99.9
2015-11-26T00:38:29.547Z,99.9
2015-11-26T00:39:29.456Z,99.9
2015-11-26T00:40:29.396Z,99.9
2015-11-26T00:41:28.602Z,99.9
2015-11-26T00:42:29.292Z,99.9
2015-11-26T00:43:29.232Z,99.9
2015-11-26T00:44:29.173Z,99.9
2015-11-26T00:45:29.129Z,99.9
2015-11-26T00:46:29.053Z,99.9
2015-11-26T00:47:29.010Z,99.9
2015-11-26T00:48:29.183Z,99.9
2015-11-26T00:49:28.905Z,99.9
2015-11-26T00:50:28.829Z,99.9
2015-11-26T00:51:28.785Z,99.9
2015-11-26T00:52:28.726Z,99.9
2015-11-26T00:53:28.665Z,99.9
2015-11-26T00:54:28.607Z,99.9
2015-11-26T00:55:28.546Z,99.9
2015-11-26T00:56:28.502Z,99.9
2015-11-26T00:57:28.443Z,99.9
2015-11-26T00:58:28.382Z,99.9
2015-11-26T00:59:28.329Z,99.9
2015-11-26T01:00:28.269Z,99.9
2015-11-26T01:01:28.224Z,99.9
2015-11-26T01:02:28.165Z,99.9
2015-11-26T01:03:28.105Z,99.9
2015-11-26T01:04:28.061Z,99.9
2015-11-26T01:05:27.985Z,99.9
2015-11-26T01:06:27.941Z,99.9
2015-11-26T01:07:27.882Z,99.9
2015-11-26T01:08:27.822Z,99.9
2015-11-26T01:09:27.763Z,99.9
2015-11-26T01:10:27.702Z,99.9
2015-11-26T01:11:27.643Z,99.9
2015-11-26T01:12:27.598Z,99.9
2015-11-26T01:13:27.540Z,99.9
2015-11-26T01:14:27.495Z,99.9
2015-11-26T01:15:27.419Z,99.9
2015-11-26T01:16:27.390Z,99.9
2015-11-26T01:17:27.312Z,99.9
2015-11-26T01:18:27.253Z,99.9
2015-11-26T01:19:27.458Z,99.9
2015-11-26T01:20:27.134Z,99.9
2015-11-26T01:21:27.090Z,99.9
2015-11-26T01:22:51.690Z,99.9
2015-11-26T01:23:26.971Z,99.9
2015-11-26T01:24:26.910Z,99.9
2015-11-26T01:25:26.851Z,99.9
2015-11-26T01:26:27.026Z,99.9
2015-11-26T01:27:26.731Z,99.9
2015-11-26T01:28:26.687Z,99.9
2015-11-26T01:29:26.627Z,99.9
2015-11-26T01:30:26.615Z,99.9
2015-11-26T01:31:26.539Z,99.9
2015-11-26T01:32:26.465Z,99.9
2015-11-26T01:33:26.404Z,99.9
2015-11-26T01:34:26.345Z,99.9
2015-11-26T01:35:26.301Z,99.9
2015-11-26T01:36:26.226Z,99.9
2015-11-26T01:37:26.196Z,99.9
2015-11-26T01:38:26.121Z,99.9
2015-11-26T01:39:26.062Z,99.9
2015-11-26T01:40:26.017Z,99.9
2015-11-26T01:41:25.957Z,99.9
2015-11-26T01:42:25.882Z,99.9
2015-11-26T01:43:25.837Z,99.9
2015-11-26T01:44:25.779Z,99.9
2015-11-26T01:45:25.734Z,99.9
2015-11-26T01:46:25.674Z,99.9
2015-11-26T01:47:25.615Z,99.9
2015-11-26T01:48:25.554Z,99.9
2015-11-26T01:49:25.542Z,99.9
2015-11-26T01:50:25.451Z,99.9
2015-11-26T01:51:25.376Z,99.9
2015-11-26T01:52:25.331Z,99.9
2015-11-26T01:53:25.272Z,99.9
2015-11-26T01:54:25.211Z,99.9
2015-11-26T01:55:25.167Z,99.9
2015-11-26T01:56:25.108Z,99.9
2015-11-26T01:57:25.048Z,99.9
2015-11-26T01:58:24.988Z,99.9
2015-11-26T01:59:24.944Z,99.9
2015-11-26T02:00:24.866Z,99.9
2015-11-26T02:01:24.821Z,99.9
2015-11-26T02:02:24.761Z,99.9
2015-11-26T02:03:24.702Z,99.9
2015-11-26T02:04:24.674Z,99.9
2015-11-26T02:05:24.598Z,99.9
2015-11-26T02:06:24.538Z,99.9
2015-11-26T02:07:24.478Z,99.9
2015-11-26T02:08:24.435Z,99.9
2015-11-26T02:09:24.375Z,99.9
2015-11-26T02:10:24.393Z,99.9
2015-11-26T02:11:24.271Z,99.9
2015-11-26T02:12:24.196Z,99.9
2015-11-26T02:13:24.136Z,99.9
2015-11-26T02:14:24.107Z,99.9
2015-11-26T02:15:24.063Z,99.9
2015-11-26T02:16:23.972Z,99.9
2015-11-26T02:17:23.912Z,99.9
2015-11-26T02:18:23.852Z,99.9
2015-11-26T02:19:23.840Z,99.9
2015-11-26T02:20:23.733Z,99.9
2015-11-26T02:21:23.689Z,99.9
2015-11-26T02:22:23.629Z,99.9
2015-11-26T02:23:23.569Z,99.9
2015-11-26T02:24:23.509Z,99.9
2015-11-26T02:25:23.449Z,99.9
2015-11-26T02:26:23.405Z,99.9
2015-11-26T02:27:23.346Z,99.9
2015-11-26T02:28:23.286Z,99.9
2015-11-26T02:29:23.226Z,99.9
2015-11-26T02:30:23.182Z,99.9
2015-11-26T02:31:23.123Z,99.9
2015-11-26T02:32:23.062Z,99.9
2015-11-26T02:33:23.018Z,99.9
2015-11-26T02:34:22.943Z,99.9
2015-11-26T02:35:22.898Z,99.9
2015-11-26T02:36:23.073Z,99.9
2015-11-26T02:37:22.857Z,99.9
2015-11-26T02:38:22.735Z,99.9
2015-11-26T02:39:22.675Z,99.9
2015-11-26T02:40:22.631Z,99.9
2015-11-26T02:41:22.571Z,99.9
2015-11-26T02:42:22.512Z,99.9
2015-11-26T02:43:22.530Z,99.9
2015-11-26T02:44:22.408Z,99.9
2015-11-26T02:45:22.348Z,99.9
2015-11-26T02:46:22.288Z,99.9
2015-11-26T02:47:22.228Z,99.9
2015-11-26T02:48:22.169Z,99.9
2015-11-26T02:49:21.953Z,99.9
2015-11-26T02:50:22.080Z,99.9
2015-11-26T02:51:21.989Z,99.9
2015-11-26T02:52:21.945Z,99.9
2015-11-26T02:53:21.886Z,99.9
2015-11-26T02:54:21.825Z,99.9
2015-11-26T02:55:21.766Z,99.9
2015-11-26T02:56:21.706Z,99.9
2015-11-26T02:57:21.662Z,99.9
2015-11-26T02:58:21.602Z,99.9
2015-11-26T02:59:21.574Z,99.9
2015-11-26T03:00:21.483Z,99.9
2015-11-26T03:01:21.423Z,99.9
2015-11-26T03:02:21.363Z,99.9
2015-11-26T03:03:21.303Z,99.9
2015-11-26T03:04:21.256Z,99.9
2015-11-26T03:05:21.196Z,99.9
2015-11-26T03:06:21.136Z,99.9
2015-11-26T03:07:21.077Z,99.9
2015-11-26T03:08:21.017Z,99.9
2015-11-26T03:09:21.207Z,99.9
2015-11-26T03:10:20.897Z,99.9
2015-11-26T03:11:20.853Z,99.9
2015-11-26T03:12:20.824Z,99.9
2015-11-26T03:13:20.734Z,99.9
2015-11-26T03:14:20.674Z,99.9
2015-11-26T03:15:20.614Z,99.9
2015-11-26T03:16:20.570Z,99.9
2015-11-26T03:17:20.510Z,99.9
2015-11-26T03:18:20.451Z,99.9
2015-11-26T03:19:20.626Z,99.9
2015-11-26T03:20:20.346Z,99.9
2015-11-26T03:21:20.287Z,99.9
2015-11-26T03:22:20.226Z,99.9
2015-11-26T03:23:20.167Z,99.9
2015-11-26T03:24:20.123Z,99.9
2015-11-26T03:25:20.298Z,99.9
2015-11-26T03:26:20.004Z,99.9
2015-11-26T03:27:19.959Z,99.9
2015-11-26T03:28:19.884Z,99.9
2015-11-26T03:29:19.840Z,99.9
2015-11-26T03:30:19.780Z,99.9
2015-11-26T03:31:19.720Z,99.9
2015-11-26T03:32:19.661Z,99.9
2015-11-26T03:33:19.601Z,99.9
2015-11-26T03:34:19.557Z,99.9
2015-11-26T03:35:19.481Z,99.9
2015-11-26T03:36:19.453Z,99.9
2015-11-26T03:37:19.721Z,99.9
2015-11-26T03:38:19.317Z,99.9
2015-11-26T03:39:19.273Z,99.9
2015-11-26T03:40:19.198Z,99.9
2015-11-26T03:41:19.170Z,99.9
2015-11-26T03:42:19.125Z,99.9
2015-11-26T03:43:19.034Z,99.9
2015-11-26T03:44:19.224Z,99.9
2015-11-26T03:45:18.931Z,99.9
2015-11-26T03:46:18.870Z,99.9
2015-11-26T03:47:18.811Z,99.9
2015-11-26T03:48:18.767Z,99.9
2015-11-26T03:49:18.708Z,99.9
2015-11-26T03:50:18.647Z,99.9
2015-11-26T03:51:18.588Z,99.9
2015-11-26T03:52:18.528Z,99.9
2015-11-26T03:53:18.483Z,99.9
2015-11-26T03:54:18.424Z,99.9
2015-11-26T03:55:18.395Z,99.9
2015-11-26T03:56:18.320Z,99.9
2015-11-26T03:57:18.261Z,99.9
2015-11-26T03:58:18.200Z,99.9
2015-11-26T03:59:18.156Z,99.9
2015-11-26T04:00:18.080Z,99.9
2015-11-26T04:01:18.022Z,99.9
2015-11-26T04:02:17.977Z,99.9
2015-11-26T04:03:17.917Z,99.9
2015-11-26T04:04:17.857Z,99.9
2015-11-26T04:05:17.829Z,99.9
2015-11-26T04:06:17.754Z,99.9
2015-11-26T04:07:17.694Z,99.9
2015-11-26T04:08:17.634Z,99.9
2015-11-26T04:09:17.605Z,99.9
2015-11-26T04:10:17.515Z,99.9
2015-11-26T04:11:17.471Z,99.9
2015-11-26T04:12:17.410Z,99.9
2015-11-26T04:13:17.351Z,99.9
2015-11-26T04:14:17.291Z,99.9
2015-11-26T04:15:17.246Z,99.9
2015-11-26T04:16:17.184Z,99.9
2015-11-26T04:17:17.124Z,99.9
2015-11-26T04:18:17.064Z,99.9
2015-11-26T04:19:17.005Z,99.9
2015-11-26T04:20:16.960Z,99.9
2015-11-26T04:21:16.916Z,99.9
2015-11-26T04:22:16.856Z,99.9
2015-11-26T04:23:16.797Z,99.9
2015-11-26T04:24:16.737Z,99.9
2015-11-26T04:25:16.678Z,99.9
2015-11-26T04:26:16.852Z,99.9
2015-11-26T04:27:16.589Z,99.9
2015-11-26T04:28:16.514Z,99.9
2015-11-26T04:29:16.469Z,99.9
2015-11-26T04:30:16.395Z,99.9
2015-11-26T04:31:16.334Z,99.9
2015-11-26T04:32:16.322Z,99.9
2015-11-26T04:33:16.231Z,99.9
2015-11-26T04:34:16.171Z,99.9
2015-11-26T04:35:16.111Z,99.9
2015-11-26T04:36:16.067Z,99.9
2015-11-26T04:37:16.006Z,99.9
2015-11-26T04:38:15.978Z,99.9
2015-11-26T04:39:15.887Z,99.9
2015-11-26T04:40:15.171Z,99.9
2015-11-26T04:41:15.784Z,99.9
2015-11-26T04:42:15.724Z,99.9
2015-11-26T04:43:15.664Z,99.9
2015-11-26T04:44:15.635Z,99.9
2015-11-26T04:45:15.560Z,99.9
2015-11-26T04:46:15.516Z,99.9
2015-11-26T04:47:15.441Z,99.9
2015-11-26T04:48:15.396Z,99.9
2015-11-26T04:49:15.336Z,99.9
2015-11-26T04:50:15.292Z,99.9
2015-11-26T04:51:15.216Z,99.9
2015-11-26T04:52:15.219Z,99.9
2015-11-26T04:53:15.347Z,99.9
2015-11-26T04:54:15.053Z,99.9
2015-11-26T04:55:14.993Z,99.9
2015-11-26T04:56:14.949Z,99.9
2015-11-26T04:57:14.921Z,99.9
2015-11-26T04:58:14.830Z,99.9
2015-11-26T04:59:14.771Z,99.9
2015-11-26T05:00:14.726Z,99.9
2015-11-26T05:01:14.665Z,99.9
2015-11-26T05:02:14.607Z,99.9
2015-11-26T05:03:14.562Z,99.9
2015-11-26T05:04:14.487Z,99.9
2015-11-26T05:05:14.427Z,99.9
2015-11-26T05:06:14.383Z,99.9
2015-11-26T05:07:14.323Z,99.9
2015-11-26T05:08:14.278Z,99.9
2015-11-26T05:09:14.453Z,99.9
2015-11-26T05:10:14.160Z,99.9
2015-11-26T05:11:14.099Z,99.9
2015-11-26T05:12:14.040Z,99.9
2015-11-26T05:13:13.996Z,99.9
2015-11-26T05:14:13.936Z,99.9
2015-11-26T05:15:13.876Z,99.9
2015-11-26T05:16:13.816Z,99.9
2015-11-26T05:17:13.773Z,99.9
2015-11-26T05:18:13.713Z,99.9
2015-11-26T05:19:13.653Z,99.9
2015-11-26T05:20:13.609Z,99.9
2015-11-26T05:21:13.580Z,99.9
2015-11-26T05:22:13.486Z,99.9
2015-11-26T05:23:13.551Z,99.9
2015-11-26T05:24:13.413Z,99.9
2015-11-26T05:25:13.323Z,99.9
2015-11-26T05:26:13.262Z,99.9
2015-11-26T05:27:13.328Z,99.9
2015-11-26T05:28:13.143Z,99.9
2015-11-26T05:29:13.100Z,99.9
2015-11-26T05:30:13.039Z,99.9
2015-11-26T05:31:12.980Z,99.9
2015-11-26T05:32:12.919Z,99.9
2015-11-26T05:33:12.876Z,99.9
2015-11-26T05:34:12.817Z,99.9
2015-11-26T05:35:12.756Z,99.9
2015-11-26T05:36:12.931Z,99.9
2015-11-26T05:37:12.653Z,99.9
2015-11-26T05:38:12.827Z,99.9
2015-11-26T05:39:12.533Z,99.9
2015-11-26T05:40:12.473Z,99.9
2015-11-26T05:41:12.428Z,99.9
2015-11-26T05:42:12.369Z,99.9
2015-11-26T05:43:12.308Z,99.9
2015-11-26T05:44:12.249Z,99.9
2015-11-26T05:45:12.222Z,99.9
2015-11-26T05:46:12.146Z,99.9
2015-11-26T05:47:12.102Z,99.9
2015-11-26T05:48:12.027Z,99.9
2015-11-26T05:49:11.983Z,99.9
2015-11-26T05:50:11.938Z,99.9
2015-11-26T05:51:11.862Z,99.9
2015-11-26T05:52:11.819Z,99.9
2015-11-26T05:53:11.758Z,99.9
2015-11-26T05:54:11.699Z,99.9
2015-11-26T05:55:11.624Z,99.9
2015-11-26T05:56:11.594Z,99.9
2015-11-26T05:57:11.519Z,99.9
2015-11-26T05:58:11.491Z,99.9
2015-11-26T05:59:11.416Z,99.9
2015-11-26T06:00:11.355Z,99.9
2015-11-26T06:01:11.296Z,99.9
2015-11-26T06:02:11.252Z,99.9
2015-11-26T06:03:11.192Z,99.9
2015-11-26T06:04:11.148Z,99.9
2015-11-26T06:05:11.073Z,99.9
2015-11-26T06:06:11.029Z,99.9
2015-11-26T06:07:10.954Z,99.9
2015-11-26T06:08:10.909Z,99.9
2015-11-26T06:09:10.849Z,99.9
2015-11-26T06:10:10.790Z,99.9
2015-11-26T06:11:10.746Z,99.9
2015-11-26T06:12:10.685Z,99.9
2015-11-26T06:13:10.626Z,99.9
2015-11-26T06:14:10.565Z,99.9
2015-11-26T06:15:10.522Z,99.9
2015-11-26T06:16:10.478Z,99.9
2015-11-26T06:17:10.433Z,99.9
2015-11-26T06:18:10.339Z,99.9
2015-11-26T06:19:10.280Z,99.9
2015-11-26T06:20:10.237Z,99.9
2015-11-26T06:21:10.192Z,99.9
2015-11-26T06:22:10.125Z,99.9
2015-11-26T06:23:10.054Z,99.9
2015-11-26T06:24:09.982Z,99.9
2015-11-26T06:25:10.146Z,99.9
2015-11-26T06:26:10.075Z,99.9
2015-11-26T06:27:09.788Z,99.9
2015-11-26T06:28:09.724Z,99.9
2015-11-26T06:29:09.723Z,99.9
2015-11-26T06:30:09.597Z,99.9
2015-11-26T06:31:09.564Z,99.9
2015-11-26T06:32:09.485Z,99.9
2015-11-26T06:33:09.659Z,99.9
2015-11-26T06:34:09.378Z,99.9
2015-11-26T06:35:09.318Z,99.9
2015-11-26T06:36:09.256Z,99.9
2015-11-26T06:37:09.196Z,99.9
2015-11-26T06:38:09.135Z,99.9
2015-11-26T06:39:09.090Z,99.9
2015-11-26T06:40:09.031Z,99.9
2015-11-26T06:41:08.971Z,99.9
2015-11-26T06:42:08.925Z,99.9
2015-11-26T06:43:08.850Z,99.9
2015-11-26T06:44:08.805Z,99.9
2015-11-26T06:45:08.746Z,99.9
2015-11-26T06:46:08.685Z,99.9
2015-11-26T06:47:08.626Z,99.9
2015-11-26T06:48:08.628Z,99.9
2015-11-26T06:49:08.521Z,99.9
2015-11-26T06:50:08.462Z,99.9
2015-11-26T06:51:08.418Z,99.9
2015-11-26T06:52:08.343Z,99.9
2015-11-26T06:53:08.314Z,99.9
2015-11-26T06:54:08.239Z,99.9
2015-11-26T06:55:08.178Z,99.9
2015-11-26T06:56:08.134Z,99.9
2015-11-26T06:57:08.074Z,99.9
2015-11-26T06:58:08.014Z,99.9
2015-11-26T06:59:07.955Z,99.9
2015-11-26T07:00:07.911Z,99.9
2015-11-26T07:01:07.836Z,99.9
2015-11-26T07:02:07.792Z,99.9
2015-11-26T07:03:07.747Z,99.9
2015-11-26T07:04:07.906Z,99.9
2015-11-26T07:05:07.628Z,99.9
2015-11-26T07:06:07.552Z,99.9
2015-11-26T07:07:07.508Z,99.9
2015-11-26T07:08:07.464Z,99.9
2015-11-26T07:09:07.388Z,99.9
2015-11-26T07:10:07.344Z,99.9
2015-11-26T07:11:07.285Z,99.9
2015-11-26T07:12:07.224Z,99.9
2015-11-26T07:13:07.181Z,99.9
2015-11-26T07:14:07.121Z,99.9
2015-11-26T07:15:07.061Z,99.9
2015-11-26T07:16:07.033Z,99.9
2015-11-26T07:17:06.958Z,99.9
2015-11-26T07:18:06.726Z,99.9
2015-11-26T07:19:06.838Z,99.9
2015-11-26T07:20:06.777Z,99.9
2015-11-26T07:21:06.718Z,99.9
2015-11-26T07:22:06.674Z,99.9
2015-11-26T07:23:06.611Z,99.9
2015-11-26T07:24:06.552Z,99.9
2015-11-26T07:25:06.491Z,99.9
2015-11-26T07:26:06.432Z,99.9
2015-11-26T07:27:06.371Z,99.9
2015-11-26T07:28:06.359Z,99.9
2015-11-26T07:29:06.269Z,99.9
2015-11-26T07:30:06.209Z,99.9
2015-11-26T07:31:06.149Z,99.9
2015-11-26T07:32:06.105Z,99.9
2015-11-26T07:33:06.046Z,99.9
2015-11-26T07:34:05.985Z,99.9
2015-11-26T07:35:05.926Z,99.9
2015-11-26T07:36:05.881Z,99.9
2015-11-26T07:37:06.040Z,99.9
2015-11-26T07:38:05.746Z,99.9
2015-11-26T07:39:05.702Z,99.9
2015-11-26T07:40:05.658Z,99.9
2015-11-26T07:41:05.583Z,99.9
2015-11-26T07:42:05.523Z,99.9
2015-11-26T07:43:05.478Z,99.9
2015-11-26T07:44:05.418Z,99.9
2015-11-26T07:45:05.454Z,99.9
2015-11-26T07:46:05.299Z,99.9
2015-11-26T07:47:05.271Z,99.9
2015-11-26T07:48:05.211Z,99.9
2015-11-26T07:49:05.136Z,99.9
2015-11-26T07:50:05.075Z,99.9
2015-11-26T07:51:05.017Z,99.9
2015-11-26T07:52:04.956Z,99.9
2015-11-26T07:53:04.896Z,99.9
2015-11-26T07:54:04.852Z,99.9
2015-11-26T07:55:04.792Z,99.9
2015-11-26T07:56:04.733Z,99.9
2015-11-26T07:57:04.673Z,99.9
2015-11-26T07:58:04.614Z,99.9
2015-11-26T07:59:04.569Z,99.9
2015-11-26T08:00:04.509Z,99.9
2015-11-26T08:01:04.450Z,99.9
2015-11-26T08:02:04.389Z,99.9
2015-11-26T08:03:04.330Z,99.9
2015-11-26T08:04:04.286Z,99.9
2015-11-26T08:05:04.226Z,99.9
2015-11-26T08:06:04.182Z,99.9
2015-11-26T08:07:04.106Z,99.9
2015-11-26T08:08:04.047Z,99.9
2015-11-26T08:09:03.986Z,99.9
2015-11-26T08:10:03.943Z,99.9
2015-11-26T08:11:03.884Z,99.9
2015-11-26T08:12:03.824Z,99.9
2015-11-26T08:13:03.764Z,99.9
2015-11-26T08:14:03.704Z,99.9
2015-11-26T08:15:03.644Z,99.9
2015-11-26T08:16:03.678Z,99.9
2015-11-26T08:17:03.603Z,99.9
2015-11-26T08:18:03.480Z,99.9
2015-11-26T08:19:03.421Z,99.9
2015-11-26T08:20:03.361Z,99.9
2015-11-26T08:21:03.317Z,99.9
2015-11-26T08:22:03.241Z,99.9
2015-11-26T08:23:03.197Z,99.9
2015-11-26T08:24:03.138Z,99.9
2015-11-26T08:25:03.093Z,99.9
2015-11-26T08:26:03.018Z,99.9
2015-11-26T08:27:02.973Z,99.9
2015-11-26T08:28:03.148Z,99.9
2015-11-26T08:29:02.854Z,99.9
2015-11-26T08:30:02.794Z,99.9
2015-11-26T08:31:02.750Z,99.9
2015-11-26T08:32:02.690Z,98.5
2015-11-26T08:33:02.659Z,97.7
2015-11-26T08:34:02.583Z,98.4
2015-11-26T08:35:02.523Z,99
2015-11-26T08:36:02.464Z,99.6
2015-11-26T08:37:02.639Z,99.8
2015-11-26T08:38:02.345Z,99.9
2015-11-26T08:39:02.301Z,99.8
2015-11-26T08:40:02.256Z,99.9
2015-11-26T08:41:02.181Z,99.8
2015-11-26T08:42:02.136Z,99.7
2015-11-26T08:43:02.061Z,95.7
2015-11-26T08:44:02.017Z,93.6
2015-11-26T08:45:01.956Z,93.2
2015-11-26T08:46:01.897Z,94.1
2015-11-26T08:47:01.853Z,95.1
2015-11-26T08:48:01.794Z,96.2
2015-11-26T08:49:01.733Z,96.3
2015-11-26T08:50:01.689Z,96.4
2015-11-26T08:51:01.661Z,97.1
2015-11-26T08:52:01.569Z,97.2
2015-11-26T08:53:01.510Z,97.6
2015-11-26T08:54:01.450Z,97.3
2015-11-26T08:55:01.625Z,96.9
2015-11-26T08:56:01.346Z,97.7
2015-11-26T08:57:01.286Z,97.5
2015-11-26T08:58:01.242Z,97.1
2015-11-26T08:59:01.183Z,97.2
2015-11-26T09:00:01.138Z,97.1
2015-11-26T09:01:01.079Z,97.8
2015-11-26T09:02:01.003Z,96.8
2015-11-26T09:03:00.974Z,96.8
2015-11-26T09:04:00.883Z,96.9
2015-11-26T09:05:00.840Z,95.5
2015-11-26T09:06:00.780Z,94
2015-11-26T09:07:00.721Z,92.9
2015-11-26T09:08:00.660Z,92.5
2015-11-26T09:09:00.615Z,91
2015-11-26T09:10:00.557Z,87.7
2015-11-26T09:11:00.496Z,86.7
2015-11-26T09:12:00.452Z,86.3
2015-11-26T09:13:00.393Z,87.9
2015-11-26T09:14:00.332Z,88.1
2015-11-26T09:15:00.335Z,90.2
2015-11-26T09:16:00.229Z,89.7
2015-11-26T09:17:00.185Z,88.3
2015-11-26T09:18:00.109Z,88
2015-11-26T09:19:00.065Z,87.4
2015-11-26T09:20:00.006Z,86.3
2015-11-26T09:20:59.946Z,84.2
2015-11-26T09:21:59.886Z,84.7
2015-11-26T09:23:00.060Z,84.1
2015-11-26T09:23:59.781Z,84.8
2015-11-26T09:24:59.722Z,84.6
2015-11-26T09:25:59.662Z,84.5
2015-11-26T09:26:59.618Z,84.1
2015-11-26T09:27:59.559Z,84.6
2015-11-26T09:28:59.499Z,85.5
2015-11-26T09:29:59.673Z,86
2015-11-26T09:30:59.395Z,87.5
2015-11-26T09:31:59.334Z,87.5
2015-11-26T09:32:59.291Z,87.8
2015-11-26T09:33:59.231Z,85.9
2015-11-26T09:34:59.171Z,83.4
2015-11-26T09:35:59.128Z,82.1
2015-11-26T09:36:59.067Z,82.3
2015-11-26T09:37:59.023Z,78.7
2015-11-26T09:38:58.198Z,79.3
2015-11-26T09:39:58.904Z,77.7
2015-11-26T09:40:58.845Z,78.3
2015-11-26T09:41:58.800Z,76.7
2015-11-26T09:42:58.740Z,76.5
2015-11-26T09:43:58.680Z,76.6
2015-11-26T09:44:58.652Z,75.9
2015-11-26T09:45:58.574Z,74
2015-11-26T09:46:58.530Z,75.1
2015-11-26T09:47:58.485Z,73
2015-11-26T09:48:58.675Z,73.2
2015-11-26T09:49:58.366Z,72.5
2015-11-26T09:50:58.337Z,73.2
2015-11-26T09:51:58.308Z,71.5
2015-11-26T09:52:58.202Z,70.6
2015-11-26T09:53:58.158Z,72
2015-11-26T09:54:58.099Z,75
2015-11-26T09:55:58.038Z,76.8
2015-11-26T09:56:57.994Z,79.2
2015-11-26T09:57:57.934Z,82.7
2015-11-26T09:58:57.891Z,84.2
2015-11-26T09:59:57.908Z,82.8
2015-11-26T10:00:57.849Z,84.3
2015-11-26T10:01:57.727Z,82.8
2015-11-26T10:02:57.666Z,82.3
2015-11-26T10:03:57.623Z,83
2015-11-26T10:04:57.547Z,84.9
2015-11-26T10:05:57.504Z,86
2015-11-26T10:06:57.443Z,85.6
2015-11-26T10:07:57.399Z,86.6
2015-11-26T10:08:57.339Z,88.4
2015-11-26T10:09:57.280Z,88.7
2015-11-26T10:10:57.220Z,87.9
2015-11-26T10:11:57.238Z,86.5
2015-11-26T10:12:57.131Z,78.2
2015-11-26T10:13:57.072Z,74
2015-11-26T10:14:57.012Z,71
2015-11-26T10:15:56.952Z,70.6
2015-11-26T10:16:56.908Z,67.9
2015-11-26T10:17:56.864Z,66.8
2015-11-26T10:18:56.804Z,65.9
2015-11-26T10:19:56.744Z,68.9
2015-11-26T10:20:56.700Z,68.6
2015-11-26T10:21:56.640Z,66.9
2015-11-26T10:22:56.581Z,64.2
2015-11-26T10:23:56.537Z,62
2015-11-26T10:24:56.476Z,61.3
2015-11-26T10:25:56.433Z,60.4
2015-11-26T10:26:56.373Z,58.9
2015-11-26T10:27:56.344Z,58.1
2015-11-26T10:28:56.269Z,57.5
2015-11-26T10:29:56.208Z,56.5
2015-11-26T10:30:56.165Z,59.3
2015-11-26T10:31:56.120Z,57.6
2015-11-26T10:32:56.061Z,60
2015-11-26T10:33:56.001Z,66
2015-11-26T10:34:56.004Z,72.9
2015-11-26T10:35:55.945Z,78.9
2015-11-26T10:36:55.838Z,81.8
2015-11-26T10:37:55.778Z,82.1
2015-11-26T10:38:55.733Z,81.3
2015-11-26T10:39:55.674Z,84.2
2015-11-26T10:40:55.614Z,82.7
2015-11-26T10:41:55.601Z,82.4
2015-11-26T10:42:55.526Z,82.7
2015-11-26T10:43:55.528Z,81
2015-11-26T10:44:55.406Z,82
2015-11-26T10:45:55.346Z,84.7
2015-11-26T10:46:55.286Z,82.7
2015-11-26T10:47:55.243Z,78.8
2015-11-26T10:48:55.183Z,73.9
2015-11-26T10:49:55.123Z,68.9
2015-11-26T10:50:55.079Z,66.5
2015-11-26T10:51:55.019Z,68
2015-11-26T10:52:54.990Z,68.8
2015-11-26T10:53:54.900Z,70.5
2015-11-26T10:54:54.855Z,71.1
2015-11-26T10:55:54.808Z,70.1
2015-11-26T10:56:54.749Z,67.5
2015-11-26T10:57:54.673Z,67.4
2015-11-26T10:58:54.629Z,66.1
2015-11-26T10:59:54.585Z,68.3
2015-11-26T11:00:54.509Z,71.6
2015-11-26T11:01:54.466Z,77.8
2015-11-26T11:02:54.421Z,78.3
2015-11-26T11:03:54.362Z,79.7
2015-11-26T11:04:54.301Z,83
2015-11-26T11:05:54.243Z,83
2015-11-26T11:06:54.199Z,85.3
2015-11-26T11:07:54.138Z,87.3
2015-11-26T11:08:54.079Z,87.5
2015-11-26T11:09:54.018Z,88.7
2015-11-26T11:10:53.959Z,87.4
2015-11-26T11:11:53.915Z,86.4
2015-11-26T11:12:53.855Z,85.3
2015-11-26T11:13:53.795Z,82.3
2015-11-26T11:14:53.751Z,80.5
2015-11-26T11:15:53.692Z,82.3
2015-11-26T11:16:53.632Z,81.1
2015-11-26T11:17:53.573Z,79.1
2015-11-26T11:18:53.543Z,80.5
2015-11-26T11:19:53.467Z,81
2015-11-26T11:20:53.643Z,80.3
2015-11-26T11:21:53.364Z,80
2015-11-26T11:22:53.351Z,80.7
2015-11-26T11:23:53.260Z,81.5
2015-11-26T11:24:53.200Z,82.4
2015-11-26T11:25:53.141Z,82.2
2015-11-26T11:26:53.081Z,84.8
2015-11-26T11:27:53.037Z,84.6
2015-11-26T11:28:52.977Z,84.2
2015-11-26T11:29:52.917Z,84.8
2015-11-26T11:30:52.858Z,84.3
2015-11-26T11:31:52.814Z,84.8
2015-11-26T11:32:52.754Z,82.7
2015-11-26T11:33:52.787Z,85
2015-11-26T11:34:52.681Z,86.8
2015-11-26T11:35:52.575Z,87.1
2015-11-26T11:36:52.531Z,84.2
2015-11-26T11:37:52.470Z,86.1
2015-11-26T11:38:52.411Z,86.7
2015-11-26T11:39:52.367Z,85.2
2015-11-26T11:40:52.338Z,83.1
2015-11-26T11:41:52.247Z,81.1
2015-11-26T11:42:52.203Z,79.3
2015-11-26T11:43:52.144Z,80
2015-11-26T11:44:52.083Z,81.5
2015-11-26T11:45:52.039Z,80.8
2015-11-26T11:46:51.979Z,80.8
2015-11-26T11:47:51.916Z,77.5
2015-11-26T11:48:51.872Z,78.7
2015-11-26T11:49:51.813Z,80.3
2015-11-26T11:50:51.769Z,79
2015-11-26T11:51:51.694Z,79.9
2015-11-26T11:52:51.697Z,78.5
2015-11-26T11:53:51.589Z,77.7
2015-11-26T11:54:51.546Z,77.8
2015-11-26T11:55:51.486Z,76.3
2015-11-26T11:56:51.441Z,77.6
2015-11-26T11:57:51.383Z,76.9
2015-11-26T11:58:51.322Z,76.3
2015-11-26T11:59:51.294Z,79.2
2015-11-26T12:00:51.219Z,78
2015-11-26T12:01:51.158Z,77
2015-11-26T12:02:51.100Z,75.7
2015-11-26T12:03:51.055Z,74.8
2015-11-26T12:04:51.058Z,76.3
2015-11-26T12:05:50.967Z,76.3
2015-11-26T12:06:50.891Z,77.8
2015-11-26T12:07:50.832Z,80
2015-11-26T12:08:50.771Z,79
2015-11-26T12:09:50.728Z,76.4
2015-11-26T12:10:50.668Z,77.7
2015-11-26T12:11:50.607Z,76
2015-11-26T12:12:50.563Z,74.1
2015-11-26T12:13:50.504Z,72.2
2015-11-26T12:14:50.460Z,72.6
2015-11-26T12:15:50.400Z,70.7
2015-11-26T12:16:50.403Z,71.8
2015-11-26T12:17:50.327Z,75.4
2015-11-26T12:18:50.237Z,74.3
2015-11-26T12:19:50.193Z,73.5
2015-11-26T12:20:50.133Z,72.6
2015-11-26T12:21:50.088Z,72.5
2015-11-26T12:22:50.013Z,74.3
2015-11-26T12:23:49.969Z,74.8
2015-11-26T12:24:49.924Z,74.6
2015-11-26T12:25:49.866Z,74.9
2015-11-26T12:26:49.805Z,73.8
2015-11-26T12:27:49.762Z,72.3
2015-11-26T12:28:49.717Z,72.1
2015-11-26T12:29:49.673Z,71.4
2015-11-26T12:30:49.598Z,71
2015-11-26T12:31:49.538Z,70.4
2015-11-26T12:32:49.494Z,71.3
2015-11-26T12:33:49.447Z,70.7
2015-11-26T12:34:49.371Z,70.1
2015-11-26T12:35:49.374Z,70.3
2015-11-26T12:36:49.502Z,70
2015-11-26T12:37:49.223Z,71.2
2015-11-26T12:38:49.164Z,71.1
2015-11-26T12:39:49.104Z,71.2
2015-11-26T12:40:48.904Z,72.2
2015-11-26T12:41:48.984Z,70.7
2015-11-26T12:42:48.939Z,70.5
2015-11-26T12:43:48.880Z,70
2015-11-26T12:44:48.836Z,71
2015-11-26T12:45:48.775Z,71.4
2015-11-26T12:46:48.717Z,70.3
2015-11-26T12:47:48.672Z,70.6
2015-11-26T12:48:48.612Z,70.6
2015-11-26T12:49:48.552Z,71
2015-11-26T12:50:48.525Z,70.7
2015-11-26T12:51:48.449Z,70.5
2015-11-26T12:52:48.389Z,69.7
2015-11-26T12:53:48.346Z,69.8
2015-11-26T12:54:48.286Z,68.5
2015-11-26T12:55:48.226Z,69.2
2015-11-26T12:56:48.181Z,69.5
2015-11-26T12:57:48.122Z,68.4
2015-11-26T12:58:48.061Z,69.9
2015-11-26T12:59:48.018Z,69.6
2015-11-26T13:00:47.958Z,69.6
2015-11-26T13:01:47.914Z,68.6
2015-11-26T13:02:47.854Z,67.5
2015-11-26T13:03:47.794Z,68.1
2015-11-26T13:04:47.000Z,68.1
2015-11-26T13:05:47.690Z,68.7
2015-11-26T13:06:47.630Z,69.2
2015-11-26T13:07:47.602Z,68.4
2015-11-26T13:08:47.542Z,68.5
2015-11-26T13:09:47.482Z,67.1
2015-11-26T13:10:47.422Z,67.9
2015-11-26T13:11:47.597Z,66
2015-11-26T13:12:47.318Z,66.8
2015-11-26T13:13:47.274Z,68.1
2015-11-26T13:14:47.216Z,66.7
2015-11-26T13:15:47.202Z,66.6
2015-11-26T13:16:47.111Z,67.7
2015-11-26T13:17:47.052Z,68.9
2015-11-26T13:18:46.991Z,68.8
2015-11-26T13:19:46.963Z,69.6